sensor_id;sensor_type;location;lat;lon;timestamp;P1;durP1;ratioP1;P2;durP2;ratioP2
64907;SDS011;64365;-1.756;110.040;2022-12-22T00:01:53;46.22;;;27.58;;
64907;SDS011;64365;-1.756;110.040;2022-12-22T00:07:32;40.40;;;23.95;;
64907;SDS011;64365;-1.756;110.040;2022-12-22T00:10:16;42.78;;;26.30;;
64907;SDS011;64365;-1.756;110.040;2022-12-22T00:13:01;45.80;;;27.13;;
64907;SDS011;64365;-1.756;110.040;2022-12-22T00:15:46;41.38;;;25.35;;
64907;SDS011;64365;-1.756;110.040;2022-12-22T00:18:30;42.63;;;27.00;;
64907;SDS011;64365;-1.756;110.040;2022-12-22T00:23:59;41.90;;;24.67;;
64907;SDS011;64365;-1.756;110.040;2022-12-22T00:26:43;43.08;;;24.45;;
64907;SDS011;64365;-1.756;110.040;2022-12-22T00:29:30;46.67;;;26.77;;
64907;SDS011;64365;-1.756;110.040;2022-12-22T00:32:19;46.78;;;26.52;;
64907;SDS011;64365;-1.756;110.040;2022-12-22T00:35:09;44.63;;;25.92;;
64907;SDS011;64365;-1.756;110.040;2022-12-22T00:37:55;45.72;;;26.13;;
64907;SDS011;64365;-1.756;110.040;2022-12-22T00:40:40;49.08;;;27.13;;
64907;SDS011;64365;-1.756;110.040;2022-12-22T00:43:24;44.72;;;26.48;;
64907;SDS011;64365;-1.756;110.040;2022-12-22T00:46:08;43.22;;;25.95;;
64907;SDS011;64365;-1.756;110.040;2022-12-22T00:48:54;42.47;;;25.33;;
64907;SDS011;64365;-1.756;110.040;2022-12-22T00:51:39;44.22;;;26.83;;
64907;SDS011;64365;-1.756;110.040;2022-12-22T00:54:23;43.03;;;26.10;;
64907;SDS011;64365;-1.756;110.040;2022-12-22T00:57:09;41.50;;;25.42;;
64907;SDS011;64365;-1.756;110.040;2022-12-22T00:59:59;40.80;;;25.73;;
64907;SDS011;64365;-1.756;110.040;2022-12-22T01:02:43;41.78;;;26.13;;
64907;SDS011;64365;-1.756;110.040;2022-12-22T01:05:28;38.67;;;23.05;;
64907;SDS011;64365;-1.756;110.040;2022-12-22T01:08:12;41.47;;;26.25;;
64907;SDS011;64365;-1.756;110.040;2022-12-22T01:10:57;42.03;;;25.83;;
64907;SDS011;64365;-1.756;110.040;2022-12-22T01:13:42;43.67;;;26.15;;
64907;SDS011;64365;-1.756;110.040;2022-12-22T01:16:26;43.22;;;26.25;;
64907;SDS011;64365;-1.756;110.040;2022-12-22T01:19:09;41.85;;;25.25;;
64907;SDS011;64365;-1.756;110.040;2022-12-22T01:21:54;40.55;;;25.85;;
64907;SDS011;64365;-1.756;110.040;2022-12-22T01:24:39;42.38;;;26.88;;
64907;SDS011;64365;-1.756;110.040;2022-12-22T01:27:23;42.28;;;25.60;;
64907;SDS011;64365;-1.756;110.040;2022-12-22T01:30:09;42.30;;;26.25;;
64907;SDS011;64365;-1.756;110.040;2022-12-22T01:32:53;42.67;;;25.65;;
64907;SDS011;64365;-1.756;110.040;2022-12-22T01:35:37;43.63;;;26.75;;
64907;SDS011;64365;-1.756;110.040;2022-12-22T01:41:09;43.55;;;26.23;;
64907;SDS011;64365;-1.756;110.040;2022-12-22T01:43:58;43.53;;;26.23;;
64907;SDS011;64365;-1.756;110.040;2022-12-22T01:49:29;38.30;;;22.25;;
64907;SDS011;64365;-1.756;110.040;2022-12-22T01:52:18;40.85;;;22.08;;
64907;SDS011;64365;-1.756;110.040;2022-12-22T01:55:06;34.58;;;20.90;;
64907;SDS011;64365;-1.756;110.040;2022-12-22T01:57:55;40.22;;;24.52;;
64907;SDS011;64365;-1.756;110.040;2022-12-22T02:00:39;44.65;;;26.63;;
64907;SDS011;64365;-1.756;110.040;2022-12-22T02:03:25;47.15;;;27.80;;
64907;SDS011;64365;-1.756;110.040;2022-12-22T02:06:16;48.13;;;27.50;;
64907;SDS011;64365;-1.756;110.040;2022-12-22T02:09:16;38.90;;;23.90;;
64907;SDS011;64365;-1.756;110.040;2022-12-22T02:12:13;44.70;;;27.20;;
64907;SDS011;64365;-1.756;110.040;2022-12-22T02:15:10;45.97;;;26.25;;
64907;SDS011;64365;-1.756;110.040;2022-12-22T02:18:02;41.35;;;23.60;;
64907;SDS011;64365;-1.756;110.040;2022-12-22T02:20:55;41.13;;;22.98;;
64907;SDS011;64365;-1.756;110.040;2022-12-22T02:23:48;42.03;;;23.33;;
64907;SDS011;64365;-1.756;110.040;2022-12-22T02:26:44;42.92;;;24.83;;
64907;SDS011;64365;-1.756;110.040;2022-12-22T02:29:32;40.63;;;23.65;;
64907;SDS011;64365;-1.756;110.040;2022-12-22T02:32:23;46.50;;;25.38;;
64907;SDS011;64365;-1.756;110.040;2022-12-22T02:35:11;45.85;;;25.83;;
64907;SDS011;64365;-1.756;110.040;2022-12-22T02:37:58;43.38;;;24.17;;
64907;SDS011;64365;-1.756;110.040;2022-12-22T02:40:54;46.13;;;27.30;;
64907;SDS011;64365;-1.756;110.040;2022-12-22T02:43:54;47.90;;;25.85;;
64907;SDS011;64365;-1.756;110.040;2022-12-22T02:46:50;44.60;;;25.00;;
64907;SDS011;64365;-1.756;110.040;2022-12-22T02:49:44;40.10;;;24.40;;
64907;SDS011;64365;-1.756;110.040;2022-12-22T02:52:35;43.42;;;24.52;;
64907;SDS011;64365;-1.756;110.040;2022-12-22T02:55:23;49.75;;;28.77;;
64907;SDS011;64365;-1.756;110.040;2022-12-22T02:58:10;46.03;;;24.40;;
64907;SDS011;64365;-1.756;110.040;2022-12-22T03:00:55;49.35;;;26.38;;
64907;SDS011;64365;-1.756;110.040;2022-12-22T03:03:40;50.45;;;26.40;;
64907;SDS011;64365;-1.756;110.040;2022-12-22T03:09:08;47.15;;;24.25;;
64907;SDS011;64365;-1.756;110.040;2022-12-22T03:14:36;40.92;;;22.80;;
64907;SDS011;64365;-1.756;110.040;2022-12-22T03:17:21;48.03;;;25.00;;
64907;SDS011;64365;-1.756;110.040;2022-12-22T03:20:06;54.53;;;26.98;;
64907;SDS011;64365;-1.756;110.040;2022-12-22T03:22:51;50.15;;;26.00;;
64907;SDS011;64365;-1.756;110.040;2022-12-22T03:25:34;56.13;;;27.90;;
64907;SDS011;64365;-1.756;110.040;2022-12-22T03:28:18;50.22;;;25.10;;
64907;SDS011;64365;-1.756;110.040;2022-12-22T03:30:51;58.42;;;28.70;;
64907;SDS011;64365;-1.756;110.040;2022-12-22T03:33:19;51.47;;;26.70;;
64907;SDS011;64365;-1.756;110.040;2022-12-22T03:35:47;59.58;;;30.42;;
64907;SDS011;64365;-1.756;110.040;2022-12-22T03:38:13;57.70;;;30.10;;
64907;SDS011;64365;-1.756;110.040;2022-12-22T03:40:40;64.90;;;30.98;;
64907;SDS011;64365;-1.756;110.040;2022-12-22T03:43:08;58.35;;;28.88;;
64907;SDS011;64365;-1.756;110.040;2022-12-22T03:45:54;61.92;;;30.50;;
64907;SDS011;64365;-1.756;110.040;2022-12-22T03:48:39;61.75;;;31.10;;
64907;SDS011;64365;-1.756;110.040;2022-12-22T03:51:06;58.20;;;28.20;;
64907;SDS011;64365;-1.756;110.040;2022-12-22T03:53:33;61.78;;;32.50;;
64907;SDS011;64365;-1.756;110.040;2022-12-22T03:55:59;63.15;;;29.00;;
64907;SDS011;64365;-1.756;110.040;2022-12-22T03:58:26;67.55;;;31.73;;
64907;SDS011;64365;-1.756;110.040;2022-12-22T04:01:03;63.63;;;29.98;;
64907;SDS011;64365;-1.756;110.040;2022-12-22T04:03:30;60.28;;;28.92;;
64907;SDS011;64365;-1.756;110.040;2022-12-22T04:05:58;64.80;;;30.45;;
64907;SDS011;64365;-1.756;110.040;2022-12-22T04:08:24;69.85;;;33.03;;
64907;SDS011;64365;-1.756;110.040;2022-12-22T04:10:51;66.63;;;31.23;;
64907;SDS011;64365;-1.756;110.040;2022-12-22T04:13:37;58.70;;;28.70;;
64907;SDS011;64365;-1.756;110.040;2022-12-22T04:16:04;62.78;;;31.30;;
64907;SDS011;64365;-1.756;110.040;2022-12-22T04:18:31;64.50;;;30.98;;
64907;SDS011;64365;-1.756;110.040;2022-12-22T04:20:59;53.95;;;25.88;;
64907;SDS011;64365;-1.756;110.040;2022-12-22T04:23:25;61.70;;;29.30;;
64907;SDS011;64365;-1.756;110.040;2022-12-22T04:25:52;64.85;;;31.90;;
64907;SDS011;64365;-1.756;110.040;2022-12-22T04:28:18;59.78;;;30.75;;
64907;SDS011;64365;-1.756;110.040;2022-12-22T04:30:47;57.78;;;27.10;;
64907;SDS011;64365;-1.756;110.040;2022-12-22T04:33:14;59.08;;;28.00;;
64907;SDS011;64365;-1.756;110.040;2022-12-22T04:35:41;52.97;;;26.75;;
64907;SDS011;64365;-1.756;110.040;2022-12-22T04:38:09;50.08;;;26.00;;
64907;SDS011;64365;-1.756;110.040;2022-12-22T04:40:36;59.63;;;29.67;;
64907;SDS011;64365;-1.756;110.040;2022-12-22T04:43:02;58.50;;;27.83;;
64907;SDS011;64365;-1.756;110.040;2022-12-22T04:45:29;60.53;;;30.70;;
64907;SDS011;64365;-1.756;110.040;2022-12-22T04:47:56;58.08;;;30.77;;
64907;SDS011;64365;-1.756;110.040;2022-12-22T04:50:22;52.13;;;28.17;;
64907;SDS011;64365;-1.756;110.040;2022-12-22T04:52:50;52.53;;;28.05;;
64907;SDS011;64365;-1.756;110.040;2022-12-22T04:55:18;51.20;;;26.48;;
64907;SDS011;64365;-1.756;110.040;2022-12-22T04:57:45;50.67;;;26.63;;
64907;SDS011;64365;-1.756;110.040;2022-12-22T05:00:12;51.85;;;26.55;;
64907;SDS011;64365;-1.756;110.040;2022-12-22T05:02:39;46.38;;;25.88;;
64907;SDS011;64365;-1.756;110.040;2022-12-22T05:05:06;50.10;;;25.40;;
64907;SDS011;64365;-1.756;110.040;2022-12-22T05:10:07;40.03;;;21.23;;
64907;SDS011;64365;-1.756;110.040;2022-12-22T05:12:36;47.67;;;23.25;;
64907;SDS011;64365;-1.756;110.040;2022-12-22T05:15:21;39.67;;;22.50;;
64907;SDS011;64365;-1.756;110.040;2022-12-22T05:17:48;47.17;;;24.13;;
64907;SDS011;64365;-1.756;110.040;2022-12-22T05:20:15;39.97;;;20.38;;
64907;SDS011;64365;-1.756;110.040;2022-12-22T05:22:42;44.25;;;22.75;;
64907;SDS011;64365;-1.756;110.040;2022-12-22T05:25:08;48.03;;;25.40;;
64907;SDS011;64365;-1.756;110.040;2022-12-22T05:27:37;51.75;;;25.00;;
64907;SDS011;64365;-1.756;110.040;2022-12-22T05:30:04;47.67;;;23.65;;
64907;SDS011;64365;-1.756;110.040;2022-12-22T05:32:31;56.63;;;29.67;;
64907;SDS011;64365;-1.756;110.040;2022-12-22T05:34:58;49.22;;;24.90;;
64907;SDS011;64365;-1.756;110.040;2022-12-22T05:37:25;53.30;;;27.77;;
64907;SDS011;64365;-1.756;110.040;2022-12-22T05:39:51;49.28;;;24.98;;
64907;SDS011;64365;-1.756;110.040;2022-12-22T05:42:18;63.55;;;30.77;;
64907;SDS011;64365;-1.756;110.040;2022-12-22T05:45:01;58.33;;;29.73;;
64907;SDS011;64365;-1.756;110.040;2022-12-22T05:47:29;59.42;;;28.40;;
64907;SDS011;64365;-1.756;110.040;2022-12-22T05:49:55;50.55;;;27.40;;
64907;SDS011;64365;-1.756;110.040;2022-12-22T05:52:22;60.65;;;28.25;;
64907;SDS011;64365;-1.756;110.040;2022-12-22T05:54:48;65.65;;;30.33;;
64907;SDS011;64365;-1.756;110.040;2022-12-22T05:57:15;48.13;;;24.60;;
64907;SDS011;64365;-1.756;110.040;2022-12-22T05:59:42;58.47;;;28.58;;
64907;SDS011;64365;-1.756;110.040;2022-12-22T06:02:09;60.90;;;29.45;;
64907;SDS011;64365;-1.756;110.040;2022-12-22T06:04:36;53.45;;;27.52;;
64907;SDS011;64365;-1.756;110.040;2022-12-22T06:07:03;55.80;;;25.48;;
64907;SDS011;64365;-1.756;110.040;2022-12-22T06:09:29;57.35;;;26.77;;
64907;SDS011;64365;-1.756;110.040;2022-12-22T06:11:56;54.97;;;26.88;;
64907;SDS011;64365;-1.756;110.040;2022-12-22T06:14:22;51.75;;;25.92;;
64907;SDS011;64365;-1.756;110.040;2022-12-22T06:16:49;53.70;;;25.63;;
64907;SDS011;64365;-1.756;110.040;2022-12-22T06:19:17;60.22;;;27.10;;
64907;SDS011;64365;-1.756;110.040;2022-12-22T06:21:43;59.08;;;25.48;;
64907;SDS011;64365;-1.756;110.040;2022-12-22T06:24:10;57.25;;;26.05;;
64907;SDS011;64365;-1.756;110.040;2022-12-22T06:26:37;54.15;;;26.35;;
64907;SDS011;64365;-1.756;110.040;2022-12-22T06:29:03;46.78;;;23.25;;
64907;SDS011;64365;-1.756;110.040;2022-12-22T06:31:32;55.65;;;25.40;;
64907;SDS011;64365;-1.756;110.040;2022-12-22T06:33:59;51.80;;;25.02;;
64907;SDS011;64365;-1.756;110.040;2022-12-22T06:36:27;61.90;;;26.65;;
64907;SDS011;64365;-1.756;110.040;2022-12-22T06:38:54;54.05;;;23.67;;
64907;SDS011;64365;-1.756;110.040;2022-12-22T06:41:20;57.28;;;21.33;;
64907;SDS011;64365;-1.756;110.040;2022-12-22T06:44:01;54.00;;;21.52;;
64907;SDS011;64365;-1.756;110.040;2022-12-22T06:46:27;49.20;;;20.50;;
64907;SDS011;64365;-1.756;110.040;2022-12-22T06:48:54;53.13;;;18.67;;
64907;SDS011;64365;-1.756;110.040;2022-12-22T06:51:21;55.08;;;23.40;;
64907;SDS011;64365;-1.756;110.040;2022-12-22T06:53:49;57.13;;;26.10;;
64907;SDS011;64365;-1.756;110.040;2022-12-22T06:56:15;65.65;;;23.42;;
64907;SDS011;64365;-1.756;110.040;2022-12-22T06:58:42;69.53;;;20.00;;
64907;SDS011;64365;-1.756;110.040;2022-12-22T07:01:09;66.78;;;18.95;;
64907;SDS011;64365;-1.756;110.040;2022-12-22T07:03:35;51.30;;;17.98;;
64907;SDS011;64365;-1.756;110.040;2022-12-22T07:06:02;50.78;;;18.17;;
64907;SDS011;64365;-1.756;110.040;2022-12-22T07:08:28;54.53;;;19.92;;
64907;SDS011;64365;-1.756;110.040;2022-12-22T07:10:56;62.60;;;18.13;;
64907;SDS011;64365;-1.756;110.040;2022-12-22T07:13:23;56.50;;;16.95;;
64907;SDS011;64365;-1.756;110.040;2022-12-22T07:15:51;43.10;;;17.38;;
64907;SDS011;64365;-1.756;110.040;2022-12-22T07:18:18;41.92;;;18.65;;
64907;SDS011;64365;-1.756;110.040;2022-12-22T07:20:46;44.95;;;18.08;;
64907;SDS011;64365;-1.756;110.040;2022-12-22T07:23:12;49.95;;;20.15;;
64907;SDS011;64365;-1.756;110.040;2022-12-22T07:25:39;46.83;;;19.30;;
64907;SDS011;64365;-1.756;110.040;2022-12-22T07:28:07;44.38;;;19.10;;
64907;SDS011;64365;-1.756;110.040;2022-12-22T07:30:34;44.70;;;18.55;;
64907;SDS011;64365;-1.756;110.040;2022-12-22T07:33:01;42.97;;;17.77;;
64907;SDS011;64365;-1.756;110.040;2022-12-22T07:35:28;47.85;;;19.88;;
64907;SDS011;64365;-1.756;110.040;2022-12-22T07:37:55;45.83;;;19.17;;
64907;SDS011;64365;-1.756;110.040;2022-12-22T07:40:21;47.72;;;18.75;;
64907;SDS011;64365;-1.756;110.040;2022-12-22T07:42:48;45.33;;;18.27;;
64907;SDS011;64365;-1.756;110.040;2022-12-22T07:45:16;45.20;;;19.33;;
64907;SDS011;64365;-1.756;110.040;2022-12-22T07:47:44;40.75;;;18.92;;
64907;SDS011;64365;-1.756;110.040;2022-12-22T07:50:12;39.08;;;17.48;;
64907;SDS011;64365;-1.756;110.040;2022-12-22T07:52:52;45.15;;;19.27;;
64907;SDS011;64365;-1.756;110.040;2022-12-22T07:55:20;37.58;;;15.82;;
64907;SDS011;64365;-1.756;110.040;2022-12-22T07:57:47;41.05;;;18.60;;
64907;SDS011;64365;-1.756;110.040;2022-12-22T08:00:16;45.97;;;18.92;;
64907;SDS011;64365;-1.756;110.040;2022-12-22T08:02:47;43.08;;;16.75;;
64907;SDS011;64365;-1.756;110.040;2022-12-22T08:05:14;39.72;;;16.98;;
64907;SDS011;64365;-1.756;110.040;2022-12-22T08:07:42;48.05;;;19.42;;
64907;SDS011;64365;-1.756;110.040;2022-12-22T08:10:10;42.40;;;18.80;;
64907;SDS011;64365;-1.756;110.040;2022-12-22T08:12:36;46.95;;;19.77;;
64907;SDS011;64365;-1.756;110.040;2022-12-22T08:15:04;41.90;;;17.20;;
64907;SDS011;64365;-1.756;110.040;2022-12-22T08:17:32;41.42;;;16.95;;
64907;SDS011;64365;-1.756;110.040;2022-12-22T08:20:02;40.33;;;17.02;;
64907;SDS011;64365;-1.756;110.040;2022-12-22T08:22:29;41.40;;;16.90;;
64907;SDS011;64365;-1.756;110.040;2022-12-22T08:24:56;43.45;;;18.98;;
64907;SDS011;64365;-1.756;110.040;2022-12-22T08:27:24;39.45;;;15.15;;
64907;SDS011;64365;-1.756;110.040;2022-12-22T08:29:56;39.25;;;15.85;;
64907;SDS011;64365;-1.756;110.040;2022-12-22T08:32:24;35.45;;;13.10;;
64907;SDS011;64365;-1.756;110.040;2022-12-22T08:34:52;35.15;;;14.40;;
64907;SDS011;64365;-1.756;110.040;2022-12-22T08:37:20;32.53;;;13.52;;
64907;SDS011;64365;-1.756;110.040;2022-12-22T08:39:51;33.55;;;11.90;;
64907;SDS011;64365;-1.756;110.040;2022-12-22T08:42:21;34.90;;;11.50;;
64907;SDS011;64365;-1.756;110.040;2022-12-22T08:44:50;32.13;;;12.77;;
64907;SDS011;64365;-1.756;110.040;2022-12-22T08:47:18;28.77;;;10.88;;
64907;SDS011;64365;-1.756;110.040;2022-12-22T08:49:45;35.05;;;12.00;;
64907;SDS011;64365;-1.756;110.040;2022-12-22T08:52:13;28.63;;;10.00;;
64907;SDS011;64365;-1.756;110.040;2022-12-22T08:54:40;19.20;;;8.77;;
64907;SDS011;64365;-1.756;110.040;2022-12-22T08:57:07;22.02;;;8.40;;
64907;SDS011;64365;-1.756;110.040;2022-12-22T08:59:33;18.45;;;8.63;;
64907;SDS011;64365;-1.756;110.040;2022-12-22T09:02:00;24.80;;;8.35;;
64907;SDS011;64365;-1.756;110.040;2022-12-22T09:04:29;20.83;;;9.32;;
64907;SDS011;64365;-1.756;110.040;2022-12-22T09:06:56;21.77;;;8.43;;
64907;SDS011;64365;-1.756;110.040;2022-12-22T09:09:25;20.80;;;8.30;;
64907;SDS011;64365;-1.756;110.040;2022-12-22T09:11:52;28.50;;;9.02;;
64907;SDS011;64365;-1.756;110.040;2022-12-22T09:14:18;31.45;;;8.93;;
64907;SDS011;64365;-1.756;110.040;2022-12-22T09:16:45;16.85;;;7.82;;
64907;SDS011;64365;-1.756;110.040;2022-12-22T09:19:11;22.77;;;8.20;;
64907;SDS011;64365;-1.756;110.040;2022-12-22T09:21:38;16.88;;;8.10;;
64907;SDS011;64365;-1.756;110.040;2022-12-22T09:24:05;19.85;;;7.57;;
64907;SDS011;64365;-1.756;110.040;2022-12-22T09:26:33;18.92;;;7.43;;
64907;SDS011;64365;-1.756;110.040;2022-12-22T09:29:00;16.77;;;7.85;;
64907;SDS011;64365;-1.756;110.040;2022-12-22T09:31:28;12.20;;;7.88;;
64907;SDS011;64365;-1.756;110.040;2022-12-22T09:33:55;18.55;;;8.52;;
64907;SDS011;64365;-1.756;110.040;2022-12-22T09:36:22;13.98;;;7.78;;
64907;SDS011;64365;-1.756;110.040;2022-12-22T09:38:50;15.00;;;7.63;;
64907;SDS011;64365;-1.756;110.040;2022-12-22T09:41:17;14.07;;;7.57;;
64907;SDS011;64365;-1.756;110.040;2022-12-22T09:43:48;11.70;;;7.10;;
64907;SDS011;64365;-1.756;110.040;2022-12-22T09:46:18;12.25;;;7.40;;
64907;SDS011;64365;-1.756;110.040;2022-12-22T09:48:46;13.00;;;7.40;;
64907;SDS011;64365;-1.756;110.040;2022-12-22T09:51:13;12.23;;;8.15;;
64907;SDS011;64365;-1.756;110.040;2022-12-22T09:53:41;14.40;;;7.97;;
64907;SDS011;64365;-1.756;110.040;2022-12-22T09:56:10;16.55;;;8.20;;
64907;SDS011;64365;-1.756;110.040;2022-12-22T09:58:39;14.65;;;9.20;;
64907;SDS011;64365;-1.756;110.040;2022-12-22T10:01:09;14.05;;;7.65;;
64907;SDS011;64365;-1.756;110.040;2022-12-22T10:03:54;15.38;;;8.45;;
64907;SDS011;64365;-1.756;110.040;2022-12-22T10:06:28;18.45;;;8.98;;
64907;SDS011;64365;-1.756;110.040;2022-12-22T10:09:01;15.27;;;7.60;;
64907;SDS011;64365;-1.756;110.040;2022-12-22T10:11:29;18.45;;;9.32;;
64907;SDS011;64365;-1.756;110.040;2022-12-22T10:13:56;20.48;;;9.23;;
64907;SDS011;64365;-1.756;110.040;2022-12-22T10:16:25;19.45;;;9.93;;
64907;SDS011;64365;-1.756;110.040;2022-12-22T10:18:54;17.27;;;9.90;;
64907;SDS011;64365;-1.756;110.040;2022-12-22T10:21:23;18.45;;;10.02;;
64907;SDS011;64365;-1.756;110.040;2022-12-22T10:23:50;17.27;;;10.20;;
64907;SDS011;64365;-1.756;110.040;2022-12-22T10:26:19;18.95;;;9.10;;
64907;SDS011;64365;-1.756;110.040;2022-12-22T10:28:49;15.23;;;8.68;;
64907;SDS011;64365;-1.756;110.040;2022-12-22T10:31:19;18.52;;;7.82;;
64907;SDS011;64365;-1.756;110.040;2022-12-22T10:33:49;15.82;;;8.65;;
64907;SDS011;64365;-1.756;110.040;2022-12-22T10:36:19;14.82;;;7.78;;
64907;SDS011;64365;-1.756;110.040;2022-12-22T10:38:52;16.80;;;8.57;;
64907;SDS011;64365;-1.756;110.040;2022-12-22T10:41:22;18.08;;;8.43;;
64907;SDS011;64365;-1.756;110.040;2022-12-22T10:43:53;15.40;;;7.53;;
64907;SDS011;64365;-1.756;110.040;2022-12-22T10:46:27;19.83;;;7.22;;
64907;SDS011;64365;-1.756;110.040;2022-12-22T10:49:16;17.02;;;8.15;;
64907;SDS011;64365;-1.756;110.040;2022-12-22T10:51:46;15.50;;;7.57;;
64907;SDS011;64365;-1.756;110.040;2022-12-22T10:54:25;13.98;;;7.43;;
64907;SDS011;64365;-1.756;110.040;2022-12-22T10:57:04;15.73;;;6.63;;
64907;SDS011;64365;-1.756;110.040;2022-12-22T10:59:46;14.30;;;7.05;;
64907;SDS011;64365;-1.756;110.040;2022-12-22T11:02:33;16.80;;;6.40;;
64907;SDS011;64365;-1.756;110.040;2022-12-22T11:05:04;16.13;;;6.70;;
64907;SDS011;64365;-1.756;110.040;2022-12-22T11:07:34;12.30;;;6.47;;
64907;SDS011;64365;-1.756;110.040;2022-12-22T11:10:06;11.05;;;6.20;;
64907;SDS011;64365;-1.756;110.040;2022-12-22T11:12:44;12.35;;;5.60;;
64907;SDS011;64365;-1.756;110.040;2022-12-22T11:15:33;11.18;;;6.03;;
64907;SDS011;64365;-1.756;110.040;2022-12-22T11:18:07;10.18;;;5.15;;
64907;SDS011;64365;-1.756;110.040;2022-12-22T11:20:50;9.82;;;5.13;;
64907;SDS011;64365;-1.756;110.040;2022-12-22T11:23:25;10.93;;;5.20;;
64907;SDS011;64365;-1.756;110.040;2022-12-22T11:26:02;11.25;;;5.57;;
64907;SDS011;64365;-1.756;110.040;2022-12-22T11:28:40;9.82;;;5.03;;
64907;SDS011;64365;-1.756;110.040;2022-12-22T11:31:19;13.32;;;5.60;;
64907;SDS011;64365;-1.756;110.040;2022-12-22T11:34:01;12.07;;;5.05;;
64907;SDS011;64365;-1.756;110.040;2022-12-22T11:36:46;11.43;;;5.28;;
64907;SDS011;64365;-1.756;110.040;2022-12-22T11:39:25;11.73;;;5.30;;
64907;SDS011;64365;-1.756;110.040;2022-12-22T11:42:03;11.98;;;5.03;;
64907;SDS011;64365;-1.756;110.040;2022-12-22T11:44:44;7.90;;;4.88;;
64907;SDS011;64365;-1.756;110.040;2022-12-22T11:47:23;15.27;;;6.13;;
64907;SDS011;64365;-1.756;110.040;2022-12-22T11:49:59;10.32;;;5.20;;
64907;SDS011;64365;-1.756;110.040;2022-12-22T11:52:45;12.77;;;5.40;;
64907;SDS011;64365;-1.756;110.040;2022-12-22T11:55:23;11.57;;;5.20;;
64907;SDS011;64365;-1.756;110.040;2022-12-22T11:58:02;11.68;;;5.50;;
64907;SDS011;64365;-1.756;110.040;2022-12-22T12:00:39;10.93;;;5.53;;
64907;SDS011;64365;-1.756;110.040;2022-12-22T12:03:28;12.52;;;5.38;;
64907;SDS011;64365;-1.756;110.040;2022-12-22T12:09:17;10.15;;;5.38;;
64907;SDS011;64365;-1.756;110.040;2022-12-22T12:11:56;10.85;;;5.90;;
64907;SDS011;64365;-1.756;110.040;2022-12-22T12:14:30;13.38;;;5.72;;
64907;SDS011;64365;-1.756;110.040;2022-12-22T12:17:05;15.48;;;6.40;;
64907;SDS011;64365;-1.756;110.040;2022-12-22T12:19:44;9.93;;;6.13;;
64907;SDS011;64365;-1.756;110.040;2022-12-22T12:22:40;14.88;;;7.28;;
64907;SDS011;64365;-1.756;110.040;2022-12-22T12:25:23;12.80;;;5.53;;
64907;SDS011;64365;-1.756;110.040;2022-12-22T12:27:59;11.52;;;6.55;;
64907;SDS011;64365;-1.756;110.040;2022-12-22T12:30:48;18.05;;;7.93;;
64907;SDS011;64365;-1.756;110.040;2022-12-22T12:33:18;20.38;;;6.97;;
64907;SDS011;64365;-1.756;110.040;2022-12-22T12:35:50;14.43;;;7.10;;
64907;SDS011;64365;-1.756;110.040;2022-12-22T12:38:25;14.30;;;7.65;;
64907;SDS011;64365;-1.756;110.040;2022-12-22T12:41:04;13.75;;;6.90;;
64907;SDS011;64365;-1.756;110.040;2022-12-22T12:43:40;11.15;;;6.90;;
64907;SDS011;64365;-1.756;110.040;2022-12-22T12:52:07;16.08;;;9.32;;
64907;SDS011;64365;-1.756;110.040;2022-12-22T12:54:35;20.50;;;10.20;;
64907;SDS011;64365;-1.756;110.040;2022-12-22T12:59:53;22.67;;;13.15;;
64907;SDS011;64365;-1.756;110.040;2022-12-22T13:02:34;20.27;;;13.52;;
64907;SDS011;64365;-1.756;110.040;2022-12-22T13:13:58;24.58;;;13.30;;
64907;SDS011;64365;-1.756;110.040;2022-12-22T13:16:29;19.67;;;10.50;;
64907;SDS011;64365;-1.756;110.040;2022-12-22T13:19:04;21.45;;;11.15;;
64907;SDS011;64365;-1.756;110.040;2022-12-22T13:21:40;18.98;;;10.77;;
64907;SDS011;64365;-1.756;110.040;2022-12-22T13:24:12;19.75;;;11.50;;
64907;SDS011;64365;-1.756;110.040;2022-12-22T13:26:43;23.60;;;12.85;;
64907;SDS011;64365;-1.756;110.040;2022-12-22T13:29:16;29.45;;;15.02;;
64907;SDS011;64365;-1.756;110.040;2022-12-22T13:31:49;24.63;;;13.13;;
64907;SDS011;64365;-1.756;110.040;2022-12-22T13:34:28;28.65;;;13.00;;
64907;SDS011;64365;-1.756;110.040;2022-12-22T13:37:01;28.40;;;13.73;;
64907;SDS011;64365;-1.756;110.040;2022-12-22T13:39:37;31.70;;;15.05;;
64907;SDS011;64365;-1.756;110.040;2022-12-22T13:42:04;26.67;;;14.48;;
64907;SDS011;64365;-1.756;110.040;2022-12-22T13:44:33;29.23;;;14.27;;
64907;SDS011;64365;-1.756;110.040;2022-12-22T13:47:00;32.33;;;15.88;;
64907;SDS011;64365;-1.756;110.040;2022-12-22T13:49:30;26.98;;;15.35;;
64907;SDS011;64365;-1.756;110.040;2022-12-22T13:52:00;28.40;;;15.65;;
64907;SDS011;64365;-1.756;110.040;2022-12-22T13:54:28;34.58;;;16.55;;
64907;SDS011;64365;-1.756;110.040;2022-12-22T13:56:59;36.47;;;18.98;;
64907;SDS011;64365;-1.756;110.040;2022-12-22T13:59:29;38.03;;;18.70;;
64907;SDS011;64365;-1.756;110.040;2022-12-22T14:02:03;34.80;;;18.00;;
64907;SDS011;64365;-1.756;110.040;2022-12-22T14:04:40;33.22;;;18.05;;
64907;SDS011;64365;-1.756;110.040;2022-12-22T14:07:09;38.45;;;18.02;;
64907;SDS011;64365;-1.756;110.040;2022-12-22T14:09:36;36.92;;;18.23;;
64907;SDS011;64365;-1.756;110.040;2022-12-22T14:12:11;33.67;;;17.42;;
64907;SDS011;64365;-1.756;110.040;2022-12-22T14:14:40;36.50;;;19.35;;
64907;SDS011;64365;-1.756;110.040;2022-12-22T14:17:16;30.05;;;17.30;;
64907;SDS011;64365;-1.756;110.040;2022-12-22T14:19:47;34.35;;;17.80;;
64907;SDS011;64365;-1.756;110.040;2022-12-22T14:22:16;33.03;;;16.85;;
64907;SDS011;64365;-1.756;110.040;2022-12-22T14:24:47;28.60;;;16.17;;
64907;SDS011;64365;-1.756;110.040;2022-12-22T14:27:24;36.70;;;17.55;;
64907;SDS011;64365;-1.756;110.040;2022-12-22T14:29:58;35.50;;;18.83;;
64907;SDS011;64365;-1.756;110.040;2022-12-22T14:32:35;33.35;;;17.15;;
64907;SDS011;64365;-1.756;110.040;2022-12-22T14:35:13;37.83;;;19.58;;
64907;SDS011;64365;-1.756;110.040;2022-12-22T14:37:42;36.88;;;17.38;;
64907;SDS011;64365;-1.756;110.040;2022-12-22T14:40:13;39.53;;;18.90;;
64907;SDS011;64365;-1.756;110.040;2022-12-22T14:42:53;38.20;;;18.65;;
64907;SDS011;64365;-1.756;110.040;2022-12-22T14:45:20;37.88;;;20.45;;
64907;SDS011;64365;-1.756;110.040;2022-12-22T14:47:49;32.55;;;16.55;;
64907;SDS011;64365;-1.756;110.040;2022-12-22T14:50:19;33.17;;;17.20;;
64907;SDS011;64365;-1.756;110.040;2022-12-22T14:52:48;37.35;;;18.42;;
64907;SDS011;64365;-1.756;110.040;2022-12-22T14:55:21;33.33;;;18.25;;
64907;SDS011;64365;-1.756;110.040;2022-12-22T14:57:51;37.13;;;19.33;;
64907;SDS011;64365;-1.756;110.040;2022-12-22T15:00:27;33.47;;;17.98;;
64907;SDS011;64365;-1.756;110.040;2022-12-22T15:02:59;32.38;;;17.77;;
64907;SDS011;64365;-1.756;110.040;2022-12-22T15:05:27;38.33;;;19.33;;
64907;SDS011;64365;-1.756;110.040;2022-12-22T15:07:56;33.58;;;17.38;;
64907;SDS011;64365;-1.756;110.040;2022-12-22T15:10:23;33.92;;;17.70;;
64907;SDS011;64365;-1.756;110.040;2022-12-22T15:12:52;37.92;;;21.17;;
64907;SDS011;64365;-1.756;110.040;2022-12-22T15:15:23;36.30;;;19.80;;
64907;SDS011;64365;-1.756;110.040;2022-12-22T15:17:50;41.30;;;20.63;;